sensor_id;sensor_type;location;lat;lon;timestamp;P1;durP1;ratioP1;P2;durP2;ratioP2
31537;SDS011;18147;51.952;6.146;2023-10-13T00:00:35;85.28;;;42.95;;
31537;SDS011;18147;51.952;6.146;2023-10-13T00:03:05;115.50;;;49.28;;
31537;SDS011;18147;51.952;6.146;2023-10-13T00:05:31;82.22;;;41.63;;
31537;SDS011;18147;51.952;6.146;2023-10-13T00:08:01;88.80;;;43.70;;
31537;SDS011;18147;51.952;6.146;2023-10-13T00:10:31;82.90;;;40.20;;
31537;SDS011;18147;51.952;6.146;2023-10-13T00:12:56;87.05;;;43.08;;
31537;SDS011;18147;51.952;6.146;2023-10-13T00:15:43;94.95;;;45.00;;
31537;SDS011;18147;51.952;6.146;2023-10-13T00:20:52;74.78;;;40.25;;
31537;SDS011;18147;51.952;6.146;2023-10-13T00:23:22;79.30;;;42.47;;
31537;SDS011;18147;51.952;6.146;2023-10-13T00:25:48;85.25;;;41.42;;
31537;SDS011;18147;51.952;6.146;2023-10-13T00:28:17;82.55;;;41.25;;
31537;SDS011;18147;51.952;6.146;2023-10-13T00:30:49;87.90;;;42.88;;
31537;SDS011;18147;51.952;6.146;2023-10-13T00:33:26;74.38;;;40.45;;
31537;SDS011;18147;51.952;6.146;2023-10-13T00:35:52;84.47;;;40.10;;
31537;SDS011;18147;51.952;6.146;2023-10-13T00:38:18;70.95;;;38.78;;
31537;SDS011;18147;51.952;6.146;2023-10-13T00:40:45;83.45;;;39.60;;
31537;SDS011;18147;51.952;6.146;2023-10-13T00:43:21;68.38;;;36.72;;
31537;SDS011;18147;51.952;6.146;2023-10-13T00:45:48;81.47;;;39.55;;
31537;SDS011;18147;51.952;6.146;2023-10-13T00:48:30;66.63;;;34.97;;
31537;SDS011;18147;51.952;6.146;2023-10-13T00:51:06;70.60;;;36.63;;
31537;SDS011;18147;51.952;6.146;2023-10-13T00:53:32;69.05;;;34.28;;
31537;SDS011;18147;51.952;6.146;2023-10-13T00:56:00;85.53;;;37.75;;
31537;SDS011;18147;51.952;6.146;2023-10-13T00:58:32;71.13;;;36.00;;
31537;SDS011;18147;51.952;6.146;2023-10-13T01:01:05;71.85;;;36.92;;
31537;SDS011;18147;51.952;6.146;2023-10-13T01:03:50;73.70;;;37.42;;
31537;SDS011;18147;51.952;6.146;2023-10-13T01:06:27;60.50;;;34.45;;
31537;SDS011;18147;51.952;6.146;2023-10-13T01:09:11;73.88;;;38.17;;
31537;SDS011;18147;51.952;6.146;2023-10-13T01:11:50;73.90;;;38.47;;
31537;SDS011;18147;51.952;6.146;2023-10-13T01:14:19;79.53;;;41.63;;
31537;SDS011;18147;51.952;6.146;2023-10-13T01:16:46;90.00;;;43.22;;
31537;SDS011;18147;51.952;6.146;2023-10-13T01:19:17;103.20;;;46.38;;
31537;SDS011;18147;51.952;6.146;2023-10-13T01:21:44;91.32;;;43.03;;
31537;SDS011;18147;51.952;6.146;2023-10-13T01:24:10;90.10;;;43.58;;
31537;SDS011;18147;51.952;6.146;2023-10-13T01:26:38;85.95;;;42.45;;
31537;SDS011;18147;51.952;6.146;2023-10-13T01:29:05;74.07;;;36.58;;
31537;SDS011;18147;51.952;6.146;2023-10-13T01:31:41;73.72;;;37.45;;
31537;SDS011;18147;51.952;6.146;2023-10-13T01:34:11;90.57;;;42.22;;
31537;SDS011;18147;51.952;6.146;2023-10-13T01:39:16;70.00;;;36.78;;
31537;SDS011;18147;51.952;6.146;2023-10-13T01:41:43;77.57;;;39.08;;
31537;SDS011;18147;51.952;6.146;2023-10-13T01:44:09;71.03;;;37.10;;
31537;SDS011;18147;51.952;6.146;2023-10-13T01:46:39;71.97;;;36.22;;
31537;SDS011;18147;51.952;6.146;2023-10-13T01:49:07;72.30;;;39.58;;
31537;SDS011;18147;51.952;6.146;2023-10-13T01:51:33;80.40;;;39.67;;
31537;SDS011;18147;51.952;6.146;2023-10-13T01:53:59;71.80;;;37.97;;
31537;SDS011;18147;51.952;6.146;2023-10-13T01:56:28;77.88;;;39.10;;
31537;SDS011;18147;51.952;6.146;2023-10-13T01:58:56;85.40;;;39.58;;
31537;SDS011;18147;51.952;6.146;2023-10-13T02:01:22;78.07;;;36.55;;
31537;SDS011;18147;51.952;6.146;2023-10-13T02:03:55;70.15;;;36.85;;
31537;SDS011;18147;51.952;6.146;2023-10-13T02:06:32;62.85;;;33.70;;
31537;SDS011;18147;51.952;6.146;2023-10-13T02:08:59;67.22;;;34.72;;
31537;SDS011;18147;51.952;6.146;2023-10-13T02:11:35;56.70;;;29.63;;
31537;SDS011;18147;51.952;6.146;2023-10-13T02:14:05;64.50;;;29.92;;
31537;SDS011;18147;51.952;6.146;2023-10-13T02:16:30;52.20;;;27.83;;
31537;SDS011;18147;51.952;6.146;2023-10-13T02:18:57;49.47;;;27.30;;
31537;SDS011;18147;51.952;6.146;2023-10-13T02:21:29;49.03;;;27.05;;
31537;SDS011;18147;51.952;6.146;2023-10-13T02:24:00;43.22;;;25.20;;
31537;SDS011;18147;51.952;6.146;2023-10-13T02:26:30;51.10;;;25.40;;
31537;SDS011;18147;51.952;6.146;2023-10-13T02:28:57;56.00;;;26.83;;
31537;SDS011;18147;51.952;6.146;2023-10-13T02:31:23;61.05;;;29.85;;
31537;SDS011;18147;51.952;6.146;2023-10-13T02:33:51;50.08;;;28.10;;
31537;SDS011;18147;51.952;6.146;2023-10-13T02:36:18;39.53;;;25.23;;
31537;SDS011;18147;51.952;6.146;2023-10-13T02:38:48;54.95;;;28.70;;
31537;SDS011;18147;51.952;6.146;2023-10-13T02:41:17;53.65;;;28.30;;
31537;SDS011;18147;51.952;6.146;2023-10-13T02:43:55;53.90;;;25.42;;
31537;SDS011;18147;51.952;6.146;2023-10-13T02:46:22;56.47;;;28.00;;
31537;SDS011;18147;51.952;6.146;2023-10-13T02:48:48;61.28;;;30.05;;
31537;SDS011;18147;51.952;6.146;2023-10-13T02:51:22;58.47;;;28.50;;
31537;SDS011;18147;51.952;6.146;2023-10-13T02:53:56;53.97;;;27.90;;
31537;SDS011;18147;51.952;6.146;2023-10-13T02:56:28;59.97;;;29.10;;
31537;SDS011;18147;51.952;6.146;2023-10-13T02:58:54;59.80;;;27.17;;
31537;SDS011;18147;51.952;6.146;2023-10-13T03:01:29;61.90;;;30.40;;
31537;SDS011;18147;51.952;6.146;2023-10-13T03:03:59;62.95;;;30.17;;
31537;SDS011;18147;51.952;6.146;2023-10-13T03:06:26;62.85;;;29.95;;
31537;SDS011;18147;51.952;6.146;2023-10-13T03:08:59;63.70;;;27.98;;
31537;SDS011;18147;51.952;6.146;2023-10-13T03:11:42;53.60;;;28.42;;
31537;SDS011;18147;51.952;6.146;2023-10-13T03:14:15;52.95;;;26.38;;
31537;SDS011;18147;51.952;6.146;2023-10-13T03:16:54;63.22;;;28.70;;
31537;SDS011;18147;51.952;6.146;2023-10-13T03:19:27;50.58;;;25.45;;
31537;SDS011;18147;51.952;6.146;2023-10-13T03:21:58;62.75;;;28.52;;
31537;SDS011;18147;51.952;6.146;2023-10-13T03:24:34;52.78;;;28.70;;
31537;SDS011;18147;51.952;6.146;2023-10-13T03:27:00;62.28;;;32.80;;
31537;SDS011;18147;51.952;6.146;2023-10-13T03:29:38;49.58;;;27.15;;
31537;SDS011;18147;51.952;6.146;2023-10-13T03:32:11;57.30;;;27.85;;
31537;SDS011;18147;51.952;6.146;2023-10-13T03:34:38;51.97;;;24.58;;
31537;SDS011;18147;51.952;6.146;2023-10-13T03:37:19;54.33;;;24.87;;
31537;SDS011;18147;51.952;6.146;2023-10-13T03:40:06;53.13;;;24.70;;
31537;SDS011;18147;51.952;6.146;2023-10-13T03:42:54;58.63;;;27.33;;
31537;SDS011;18147;51.952;6.146;2023-10-13T03:45:39;54.33;;;25.95;;
31537;SDS011;18147;51.952;6.146;2023-10-13T03:48:12;64.97;;;27.80;;
31537;SDS011;18147;51.952;6.146;2023-10-13T03:51:01;53.70;;;27.30;;
31537;SDS011;18147;51.952;6.146;2023-10-13T03:53:36;65.65;;;29.75;;
31537;SDS011;18147;51.952;6.146;2023-10-13T03:56:17;63.08;;;30.35;;
31537;SDS011;18147;51.952;6.146;2023-10-13T03:58:53;76.75;;;33.47;;
31537;SDS011;18147;51.952;6.146;2023-10-13T04:01:23;73.68;;;34.30;;
31537;SDS011;18147;51.952;6.146;2023-10-13T04:04:12;86.07;;;34.97;;
31537;SDS011;18147;51.952;6.146;2023-10-13T04:06:55;76.55;;;34.70;;
31537;SDS011;18147;51.952;6.146;2023-10-13T04:09:38;67.00;;;31.83;;
31537;SDS011;18147;51.952;6.146;2023-10-13T04:12:14;60.47;;;29.30;;
31537;SDS011;18147;51.952;6.146;2023-10-13T04:15:05;50.92;;;26.35;;
31537;SDS011;18147;51.952;6.146;2023-10-13T04:17:32;55.80;;;27.27;;
31537;SDS011;18147;51.952;6.146;2023-10-13T04:20:05;77.45;;;31.38;;
31537;SDS011;18147;51.952;6.146;2023-10-13T04:22:31;61.08;;;27.35;;
31537;SDS011;18147;51.952;6.146;2023-10-13T04:25:13;54.60;;;25.27;;
31537;SDS011;18147;51.952;6.146;2023-10-13T04:28:04;44.83;;;23.58;;
31537;SDS011;18147;51.952;6.146;2023-10-13T04:30:46;50.78;;;24.35;;
31537;SDS011;18147;51.952;6.146;2023-10-13T04:33:28;47.70;;;23.73;;
31537;SDS011;18147;51.952;6.146;2023-10-13T04:36:04;46.05;;;23.60;;
31537;SDS011;18147;51.952;6.146;2023-10-13T04:38:44;61.55;;;23.83;;
31537;SDS011;18147;51.952;6.146;2023-10-13T04:44:23;58.58;;;23.38;;
31537;SDS011;18147;51.952;6.146;2023-10-13T04:47:09;79.30;;;29.85;;
31537;SDS011;18147;51.952;6.146;2023-10-13T04:49:42;75.68;;;28.13;;
31537;SDS011;18147;51.952;6.146;2023-10-13T04:52:09;59.70;;;28.23;;
31537;SDS011;18147;51.952;6.146;2023-10-13T04:54:36;66.10;;;29.75;;
31537;SDS011;18147;51.952;6.146;2023-10-13T04:57:18;63.08;;;30.65;;
31537;SDS011;18147;51.952;6.146;2023-10-13T04:59:57;73.28;;;29.92;;
31537;SDS011;18147;51.952;6.146;2023-10-13T05:02:38;73.13;;;32.25;;
31537;SDS011;18147;51.952;6.146;2023-10-13T05:05:07;97.15;;;37.60;;
31537;SDS011;18147;51.952;6.146;2023-10-13T05:07:43;77.30;;;35.97;;
31537;SDS011;18147;51.952;6.146;2023-10-13T05:10:28;94.68;;;39.00;;
31537;SDS011;18147;51.952;6.146;2023-10-13T05:13:13;93.70;;;40.65;;
31537;SDS011;18147;51.952;6.146;2023-10-13T05:15:57;121.60;;;44.97;;
31537;SDS011;18147;51.952;6.146;2023-10-13T05:18:41;98.55;;;43.00;;
31537;SDS011;18147;51.952;6.146;2023-10-13T05:21:25;87.00;;;40.58;;
31537;SDS011;18147;51.952;6.146;2023-10-13T05:24:10;110.82;;;44.90;;
31537;SDS011;18147;51.952;6.146;2023-10-13T05:26:54;84.95;;;40.45;;
31537;SDS011;18147;51.952;6.146;2023-10-13T05:29:38;94.93;;;41.75;;
31537;SDS011;18147;51.952;6.146;2023-10-13T05:32:24;85.65;;;39.30;;
31537;SDS011;18147;51.952;6.146;2023-10-13T05:35:08;75.45;;;38.22;;
31537;SDS011;18147;51.952;6.146;2023-10-13T05:37:52;68.53;;;36.65;;
31537;SDS011;18147;51.952;6.146;2023-10-13T05:40:36;75.18;;;35.78;;
31537;SDS011;18147;51.952;6.146;2023-10-13T05:43:20;58.38;;;29.70;;
31537;SDS011;18147;51.952;6.146;2023-10-13T05:46:05;65.60;;;32.78;;
31537;SDS011;18147;51.952;6.146;2023-10-13T05:49:01;72.78;;;36.67;;
31537;SDS011;18147;51.952;6.146;2023-10-13T05:51:36;79.80;;;36.97;;
31537;SDS011;18147;51.952;6.146;2023-10-13T05:54:05;59.42;;;31.10;;
31537;SDS011;18147;51.952;6.146;2023-10-13T05:56:39;49.72;;;27.20;;
31537;SDS011;18147;51.952;6.146;2023-10-13T05:59:23;54.70;;;28.92;;
31537;SDS011;18147;51.952;6.146;2023-10-13T06:02:08;38.50;;;24.33;;
31537;SDS011;18147;51.952;6.146;2023-10-13T06:04:52;55.42;;;26.27;;
31537;SDS011;18147;51.952;6.146;2023-10-13T06:07:37;46.95;;;24.35;;
31537;SDS011;18147;51.952;6.146;2023-10-13T06:10:21;48.40;;;24.58;;
31537;SDS011;18147;51.952;6.146;2023-10-13T06:13:06;35.78;;;21.92;;
31537;SDS011;18147;51.952;6.146;2023-10-13T06:15:51;52.22;;;24.33;;
31537;SDS011;18147;51.952;6.146;2023-10-13T06:18:35;45.60;;;23.88;;
31537;SDS011;18147;51.952;6.146;2023-10-13T06:21:19;37.80;;;20.80;;
31537;SDS011;18147;51.952;6.146;2023-10-13T06:24:04;35.83;;;19.83;;
31537;SDS011;18147;51.952;6.146;2023-10-13T06:26:49;44.50;;;24.15;;
31537;SDS011;18147;51.952;6.146;2023-10-13T06:29:34;40.35;;;21.13;;
31537;SDS011;18147;51.952;6.146;2023-10-13T06:31:59;41.25;;;20.70;;
31537;SDS011;18147;51.952;6.146;2023-10-13T06:34:26;36.03;;;20.15;;
31537;SDS011;18147;51.952;6.146;2023-10-13T06:37:05;39.95;;;20.98;;
31537;SDS011;18147;51.952;6.146;2023-10-13T06:39:50;30.38;;;19.25;;
31537;SDS011;18147;51.952;6.146;2023-10-13T06:42:16;38.03;;;21.15;;
31537;SDS011;18147;51.952;6.146;2023-10-13T06:44:44;39.28;;;19.90;;
31537;SDS011;18147;51.952;6.146;2023-10-13T06:47:11;37.70;;;21.17;;
31537;SDS011;18147;51.952;6.146;2023-10-13T06:49:37;32.40;;;17.00;;
31537;SDS011;18147;51.952;6.146;2023-10-13T06:52:07;39.83;;;19.88;;
31537;SDS011;18147;51.952;6.146;2023-10-13T06:54:32;34.13;;;20.80;;
31537;SDS011;18147;51.952;6.146;2023-10-13T06:57:00;40.20;;;22.30;;
31537;SDS011;18147;51.952;6.146;2023-10-13T06:59:28;28.92;;;16.35;;
31537;SDS011;18147;51.952;6.146;2023-10-13T07:01:58;34.25;;;15.68;;
31537;SDS011;18147;51.952;6.146;2023-10-13T07:04:29;27.55;;;14.60;;
31537;SDS011;18147;51.952;6.146;2023-10-13T07:06:54;27.45;;;15.00;;
31537;SDS011;18147;51.952;6.146;2023-10-13T07:09:20;28.50;;;15.93;;
31537;SDS011;18147;51.952;6.146;2023-10-13T07:12:01;30.52;;;18.10;;
31537;SDS011;18147;51.952;6.146;2023-10-13T07:14:28;23.02;;;15.15;;
31537;SDS011;18147;51.952;6.146;2023-10-13T07:19:27;31.85;;;16.17;;
31537;SDS011;18147;51.952;6.146;2023-10-13T07:22:00;28.30;;;15.75;;
31537;SDS011;18147;51.952;6.146;2023-10-13T07:24:46;22.65;;;14.60;;
31537;SDS011;18147;51.952;6.146;2023-10-13T07:27:18;23.05;;;14.93;;
31537;SDS011;18147;51.952;6.146;2023-10-13T07:29:51;28.73;;;16.48;;
31537;SDS011;18147;51.952;6.146;2023-10-13T07:32:24;31.67;;;15.15;;
31537;SDS011;18147;51.952;6.146;2023-10-13T07:34:54;26.95;;;15.55;;
31537;SDS011;18147;51.952;6.146;2023-10-13T07:37:23;26.42;;;14.85;;
31537;SDS011;18147;51.952;6.146;2023-10-13T07:39:54;33.10;;;14.45;;
31537;SDS011;18147;51.952;6.146;2023-10-13T07:42:23;24.20;;;13.98;;
31537;SDS011;18147;51.952;6.146;2023-10-13T07:44:55;35.00;;;15.82;;
31537;SDS011;18147;51.952;6.146;2023-10-13T07:47:21;33.58;;;13.55;;
31537;SDS011;18147;51.952;6.146;2023-10-13T07:49:49;22.85;;;12.23;;
31537;SDS011;18147;51.952;6.146;2023-10-13T07:52:16;30.15;;;15.15;;
31537;SDS011;18147;51.952;6.146;2023-10-13T07:54:45;31.27;;;14.88;;
31537;SDS011;18147;51.952;6.146;2023-10-13T07:57:30;27.88;;;13.10;;
31537;SDS011;18147;51.952;6.146;2023-10-13T07:59:55;25.33;;;13.93;;
31537;SDS011;18147;51.952;6.146;2023-10-13T08:02:36;26.40;;;12.82;;
31537;SDS011;18147;51.952;6.146;2023-10-13T08:05:15;31.73;;;12.70;;
31537;SDS011;18147;51.952;6.146;2023-10-13T08:08:04;26.50;;;13.80;;
31537;SDS011;18147;51.952;6.146;2023-10-13T08:10:39;27.45;;;13.55;;
31537;SDS011;18147;51.952;6.146;2023-10-13T08:13:07;30.73;;;13.88;;
31537;SDS011;18147;51.952;6.146;2023-10-13T08:15:39;32.92;;;13.18;;
31537;SDS011;18147;51.952;6.146;2023-10-13T08:18:12;36.95;;;13.90;;
31537;SDS011;18147;51.952;6.146;2023-10-13T08:20:45;29.27;;;12.57;;
31537;SDS011;18147;51.952;6.146;2023-10-13T08:23:10;29.02;;;12.77;;
31537;SDS011;18147;51.952;6.146;2023-10-13T08:25:39;35.25;;;12.57;;
31537;SDS011;18147;51.952;6.146;2023-10-13T08:28:24;24.35;;;11.32;;
31537;SDS011;18147;51.952;6.146;2023-10-13T08:31:07;37.15;;;13.15;;
31537;SDS011;18147;51.952;6.146;2023-10-13T08:33:50;25.40;;;12.30;;
31537;SDS011;18147;51.952;6.146;2023-10-13T08:36:23;28.50;;;11.68;;
31537;SDS011;18147;51.952;6.146;2023-10-13T08:38:56;30.33;;;12.02;;
31537;SDS011;18147;51.952;6.146;2023-10-13T08:41:24;30.90;;;12.60;;
31537;SDS011;18147;51.952;6.146;2023-10-13T08:43:54;30.50;;;11.90;;
31537;SDS011;18147;51.952;6.146;2023-10-13T08:46:29;27.95;;;12.13;;
31537;SDS011;18147;51.952;6.146;2023-10-13T08:49:03;25.80;;;10.80;;
31537;SDS011;18147;51.952;6.146;2023-10-13T08:51:41;21.98;;;10.73;;
31537;SDS011;18147;51.952;6.146;2023-10-13T08:54:13;19.67;;;11.13;;
31537;SDS011;18147;51.952;6.146;2023-10-13T08:56:59;25.27;;;10.73;;
31537;SDS011;18147;51.952;6.146;2023-10-13T08:59:45;28.20;;;11.80;;
31537;SDS011;18147;51.952;6.146;2023-10-13T09:02:21;26.05;;;11.43;;
31537;SDS011;18147;51.952;6.146;2023-10-13T09:05:07;28.75;;;10.27;;
31537;SDS011;18147;51.952;6.146;2023-10-13T09:07:54;23.60;;;10.65;;
31537;SDS011;18147;51.952;6.146;2023-10-13T09:10:23;24.55;;;11.50;;
31537;SDS011;18147;51.952;6.146;2023-10-13T09:12:58;30.27;;;10.65;;
31537;SDS011;18147;51.952;6.146;2023-10-13T09:15:30;24.38;;;10.30;;
31537;SDS011;18147;51.952;6.146;2023-10-13T09:18:34;22.08;;;10.98;;
31537;SDS011;18147;51.952;6.146;2023-10-13T09:21:11;29.35;;;11.60;;
31537;SDS011;18147;51.952;6.146;2023-10-13T09:23:56;22.23;;;10.80;;
31537;SDS011;18147;51.952;6.146;2023-10-13T09:26:41;29.92;;;11.40;;
31537;SDS011;18147;51.952;6.146;2023-10-13T09:29:19;26.67;;;11.65;;
31537;SDS011;18147;51.952;6.146;2023-10-13T09:32:00;27.95;;;10.75;;
31537;SDS011;18147;51.952;6.146;2023-10-13T09:34:29;26.55;;;11.35;;
31537;SDS011;18147;51.952;6.146;2023-10-13T09:36:58;21.40;;;10.05;;
31537;SDS011;18147;51.952;6.146;2023-10-13T09:39:25;21.65;;;9.98;;
31537;SDS011;18147;51.952;6.146;2023-10-13T09:42:10;24.90;;;10.55;;
31537;SDS011;18147;51.952;6.146;2023-10-13T09:44:40;22.15;;;11.00;;
31537;SDS011;18147;51.952;6.146;2023-10-13T09:47:07;27.42;;;10.27;;
31537;SDS011;18147;51.952;6.146;2023-10-13T09:49:45;23.58;;;10.75;;
31537;SDS011;18147;51.952;6.146;2023-10-13T09:52:14;26.50;;;10.27;;
31537;SDS011;18147;51.952;6.146;2023-10-13T09:54:50;26.20;;;11.13;;
31537;SDS011;18147;51.952;6.146;2023-10-13T09:57:26;23.10;;;9.68;;
31537;SDS011;18147;51.952;6.146;2023-10-13T10:00:21;29.60;;;11.02;;
31537;SDS011;18147;51.952;6.146;2023-10-13T10:03:06;28.75;;;10.68;;
31537;SDS011;18147;51.952;6.146;2023-10-13T10:05:56;30.27;;;11.13;;
31537;SDS011;18147;51.952;6.146;2023-10-13T10:08:30;31.88;;;10.63;;
31537;SDS011;18147;51.952;6.146;2023-10-13T10:17:14;23.95;;;9.82;;
31537;SDS011;18147;51.952;6.146;2023-10-13T10:19:46;21.83;;;9.07;;
31537;SDS011;18147;51.952;6.146;2023-10-13T10:24:58;25.20;;;8.85;;
31537;SDS011;18147;51.952;6.146;2023-10-13T10:27:26;32.50;;;9.93;;
31537;SDS011;18147;51.952;6.146;2023-10-13T10:29:56;31.15;;;10.15;;
31537;SDS011;18147;51.952;6.146;2023-10-13T10:32:37;23.40;;;10.15;;
31537;SDS011;18147;51.952;6.146;2023-10-13T10:35:09;27.98;;;9.57;;
31537;SDS011;18147;51.952;6.146;2023-10-13T10:37:46;23.50;;;10.27;;
31537;SDS011;18147;51.952;6.146;2023-10-13T10:40:15;29.83;;;9.90;;
31537;SDS011;18147;51.952;6.146;2023-10-13T10:43:00;24.50;;;9.63;;
31537;SDS011;18147;51.952;6.146;2023-10-13T10:45:33;21.10;;;10.10;;
31537;SDS011;18147;51.952;6.146;2023-10-13T10:48:00;23.88;;;9.88;;
31537;SDS011;18147;51.952;6.146;2023-10-13T10:50:41;21.77;;;8.68;;
31537;SDS011;18147;51.952;6.146;2023-10-13T10:53:08;28.73;;;10.20;;
31537;SDS011;18147;51.952;6.146;2023-10-13T10:55:37;23.58;;;9.63;;
31537;SDS011;18147;51.952;6.146;2023-10-13T10:58:03;24.17;;;9.48;;
31537;SDS011;18147;51.952;6.146;2023-10-13T11:00:31;32.42;;;10.50;;
31537;SDS011;18147;51.952;6.146;2023-10-13T11:03:15;18.98;;;8.82;;
31537;SDS011;18147;51.952;6.146;2023-10-13T11:05:47;26.80;;;10.77;;
31537;SDS011;18147;51.952;6.146;2023-10-13T11:08:24;26.77;;;10.75;;
31537;SDS011;18147;51.952;6.146;2023-10-13T11:11:02;23.65;;;10.43;;
31537;SDS011;18147;51.952;6.146;2023-10-13T11:13:46;24.85;;;9.68;;
31537;SDS011;18147;51.952;6.146;2023-10-13T11:16:20;24.45;;;10.32;;
31537;SDS011;18147;51.952;6.146;2023-10-13T11:18:59;24.00;;;10.40;;
31537;SDS011;18147;51.952;6.146;2023-10-13T11:21:28;24.25;;;9.82;;
31537;SDS011;18147;51.952;6.146;2023-10-13T11:23:58;25.35;;;10.13;;
31537;SDS011;18147;51.952;6.146;2023-10-13T11:26:36;21.70;;;10.18;;
31537;SDS011;18147;51.952;6.146;2023-10-13T11:29:14;21.40;;;10.02;;
31537;SDS011;18147;51.952;6.146;2023-10-13T11:31:47;22.48;;;9.82;;
31537;SDS011;18147;51.952;6.146;2023-10-13T11:34:24;25.50;;;10.00;;
31537;SDS011;18147;51.952;6.146;2023-10-13T11:36:50;28.83;;;10.93;;
31537;SDS011;18147;51.952;6.146;2023-10-13T11:39:17;25.42;;;11.00;;
31537;SDS011;18147;51.952;6.146;2023-10-13T11:41:47;21.00;;;9.82;;
31537;SDS011;18147;51.952;6.146;2023-10-13T11:44:19;29.42;;;11.20;;
31537;SDS011;18147;51.952;6.146;2023-10-13T11:46:44;23.30;;;10.23;;
31537;SDS011;18147;51.952;6.146;2023-10-13T11:49:13;21.88;;;10.77;;
31537;SDS011;18147;51.952;6.146;2023-10-13T11:51:39;25.15;;;10.23;;
31537;SDS011;18147;51.952;6.146;2023-10-13T11:56:40;26.05;;;10.93;;
31537;SDS011;18147;51.952;6.146;2023-10-13T11:59:10;22.98;;;10.55;;
31537;SDS011;18147;51.952;6.146;2023-10-13T12:01:49;29.38;;;10.65;;
31537;SDS011;18147;51.952;6.146;2023-10-13T12:04:34;33.80;;;10.20;;
31537;SDS011;18147;51.952;6.146;2023-10-13T12:07:16;27.48;;;10.32;;
31537;SDS011;18147;51.952;6.146;2023-10-13T12:09:47;26.08;;;9.60;;
31537;SDS011;18147;51.952;6.146;2023-10-13T12:12:19;25.40;;;10.63;;
31537;SDS011;18147;51.952;6.146;2023-10-13T12:14:45;20.45;;;9.25;;
31537;SDS011;18147;51.952;6.146;2023-10-13T12:17:27;33.28;;;11.82;;
31537;SDS011;18147;51.952;6.146;2023-10-13T12:19:57;21.35;;;9.95;;
31537;SDS011;18147;51.952;6.146;2023-10-13T12:22:23;23.05;;;10.90;;
31537;SDS011;18147;51.952;6.146;2023-10-13T12:24:54;27.20;;;10.25;;
31537;SDS011;18147;51.952;6.146;2023-10-13T12:27:20;30.23;;;10.18;;
31537;SDS011;18147;51.952;6.146;2023-10-13T12:29:49;34.80;;;10.35;;
31537;SDS011;18147;51.952;6.146;2023-10-13T12:32:17;20.63;;;9.40;;
31537;SDS011;18147;51.952;6.146;2023-10-13T12:34:47;29.73;;;9.68;;
31537;SDS011;18147;51.952;6.146;2023-10-13T12:37:31;26.83;;;9.73;;
31537;SDS011;18147;51.952;6.146;2023-10-13T12:40:11;22.33;;;9.30;;
31537;SDS011;18147;51.952;6.146;2023-10-13T12:42:56;23.02;;;9.55;;
31537;SDS011;18147;51.952;6.146;2023-10-13T12:45:44;29.63;;;9.85;;
31537;SDS011;18147;51.952;6.146;2023-10-13T12:48:31;24.30;;;10.05;;
31537;SDS011;18147;51.952;6.146;2023-10-13T12:51:16;26.08;;;10.32;;
31537;SDS011;18147;51.952;6.146;2023-10-13T12:53:48;25.77;;;10.20;;
31537;SDS011;18147;51.952;6.146;2023-10-13T12:56:18;25.63;;;9.60;;
31537;SDS011;18147;51.952;6.146;2023-10-13T12:58:51;35.80;;;10.45;;
31537;SDS011;18147;51.952;6.146;2023-10-13T13:01:20;35.38;;;10.20;;
31537;SDS011;18147;51.952;6.146;2023-10-13T13:03:47;26.30;;;9.35;;
31537;SDS011;18147;51.952;6.146;2023-10-13T13:06:16;26.73;;;9.82;;
31537;SDS011;18147;51.952;6.146;2023-10-13T13:08:43;33.17;;;10.48;;
31537;SDS011;18147;51.952;6.146;2023-10-13T13:11:09;25.02;;;9.52;;
31537;SDS011;18147;51.952;6.146;2023-10-13T13:13:36;33.60;;;9.85;;
31537;SDS011;18147;51.952;6.146;2023-10-13T13:16:01;23.23;;;9.73;;
31537;SDS011;18147;51.952;6.146;2023-10-13T13:18:28;23.17;;;10.10;;
31537;SDS011;18147;51.952;6.146;2023-10-13T13:20:54;37.97;;;10.43;;
31537;SDS011;18147;51.952;6.146;2023-10-13T13:23:19;35.67;;;10.75;;
31537;SDS011;18147;51.952;6.146;2023-10-13T13:25:46;21.00;;;9.05;;
31537;SDS011;18147;51.952;6.146;2023-10-13T13:28:12;27.05;;;10.23;;
31537;SDS011;18147;51.952;6.146;2023-10-13T13:30:40;32.55;;;10.50;;
31537;SDS011;18147;51.952;6.146;2023-10-13T13:33:06;32.30;;;9.55;;
31537;SDS011;18147;51.952;6.146;2023-10-13T13:35:40;28.17;;;9.30;;
31537;SDS011;18147;51.952;6.146;2023-10-13T13:38:08;27.52;;;10.57;;
31537;SDS011;18147;51.952;6.146;2023-10-13T13:40:55;23.08;;;8.55;;
31537;SDS011;18147;51.952;6.146;2023-10-13T13:43:21;28.75;;;9.75;;
31537;SDS011;18147;51.952;6.146;2023-10-13T13:46:22;26.17;;;8.98;;
31537;SDS011;18147;51.952;6.146;2023-10-13T13:51:26;23.35;;;8.20;;
31537;SDS011;18147;51.952;6.146;2023-10-13T13:53:53;33.30;;;8.85;;
31537;SDS011;18147;51.952;6.146;2023-10-13T13:56:23;18.60;;;7.90;;
31537;SDS011;18147;51.952;6.146;2023-10-13T13:58:54;27.30;;;9.00;;
31537;SDS011;18147;51.952;6.146;2023-10-13T14:01:23;25.85;;;8.50;;
31537;SDS011;18147;51.952;6.146;2023-10-13T14:03:54;24.52;;;8.00;;
31537;SDS011;18147;51.952;6.146;2023-10-13T14:06:22;26.70;;;7.95;;
31537;SDS011;18147;51.952;6.146;2023-10-13T14:08:53;27.70;;;8.85;;
31537;SDS011;18147;51.952;6.146;2023-10-13T14:11:20;31.55;;;8.68;;
31537;SDS011;18147;51.952;6.146;2023-10-13T14:14:05;27.83;;;7.88;;
31537;SDS011;18147;51.952;6.146;2023-10-13T14:19:13;29.70;;;8.32;;
31537;SDS011;18147;51.952;6.146;2023-10-13T14:21:51;20.05;;;7.68;;
31537;SDS011;18147;51.952;6.146;2023-10-13T14:24:19;19.50;;;6.80;;
31537;SDS011;18147;51.952;6.146;2023-10-13T14:27:00;23.85;;;7.75;;
31537;SDS011;18147;51.952;6.146;2023-10-13T14:29:37;26.98;;;8.57;;
31537;SDS011;18147;51.952;6.146;2023-10-13T14:32:11;24.97;;;7.83;;
31537;SDS011;18147;51.952;6.146;2023-10-13T14:34:39;27.85;;;7.22;;
31537;SDS011;18147;51.952;6.146;2023-10-13T14:37:05;18.25;;;7.38;;
31537;SDS011;18147;51.952;6.146;2023-10-13T14:39:31;28.33;;;8.90;;
31537;SDS011;18147;51.952;6.146;2023-10-13T14:42:00;12.70;;;6.18;;
31537;SDS011;18147;51.952;6.146;2023-10-13T14:44:30;21.27;;;7.40;;
31537;SDS011;18147;51.952;6.146;2023-10-13T14:46:57;26.45;;;8.27;;
31537;SDS011;18147;51.952;6.146;2023-10-13T14:49:22;23.73;;;7.18;;
31537;SDS011;18147;51.952;6.146;2023-10-13T14:51:48;28.10;;;8.15;;
31537;SDS011;18147;51.952;6.146;2023-10-13T14:54:15;28.20;;;7.50;;
31537;SDS011;18147;51.952;6.146;2023-10-13T14:56:41;24.40;;;8.68;;
31537;SDS011;18147;51.952;6.146;2023-10-13T14:59:09;25.67;;;7.80;;
31537;SDS011;18147;51.952;6.146;2023-10-13T15:01:42;22.10;;;7.97;;
31537;SDS011;18147;51.952;6.146;2023-10-13T15:04:08;19.30;;;6.35;;
31537;SDS011;18147;51.952;6.146;2023-10-13T15:06:33;22.35;;;7.97;;
31537;SDS011;18147;51.952;6.146;2023-10-13T15:08:59;23.92;;;7.95;;
31537;SDS011;18147;51.952;6.146;2023-10-13T15:11:26;25.35;;;7.45;;
31537;SDS011;18147;51.952;6.146;2023-10-13T15:13:55;25.40;;;7.43;;
31537;SDS011;18147;51.952;6.146;2023-10-13T15:16:25;19.23;;;6.93;;
31537;SDS011;18147;51.952;6.146;2023-10-13T15:18:52;18.77;;;6.88;;
31537;SDS011;18147;51.952;6.146;2023-10-13T15:21:21;21.80;;;7.20;;
31537;SDS011;18147;51.952;6.146;2023-10-13T15:23:48;21.27;;;6.88;;
31537;SDS011;18147;51.952;6.146;2023-10-13T15:26:16;22.60;;;7.68;;
31537;SDS011;18147;51.952;6.146;2023-10-13T15:28:42;22.48;;;8.40;;